The Numbers - Box Office Data, Movie Stars, Idle Speculation
Audio Cables
Sunday, July 27, 2014

Little Fockers


The Numbers Rating: 5.89 (9 votes) Rate it - Rating Details
Rotten Tomatoes Rating: 10% - Rotten
Theatrical Performance
Domestic Box Office $148,438,600
International Box Office$162,211,974
Worldwide Box Office$310,650,574
Home Market Performance
Domestic DVD Sales: $20,418,588 Weekly Breakdown
For full financial breakdown, please contact our research team.
Production Budget:$100,000,000
Theatrical Release: December 22nd, 2010 (Wide) by Universal
Video Release: April 5th, 2011 by Universal Home Entertainment
MPAA Rating: PG-13 for mature sexual humor throughout, language and some drug content.
(Rating bulletin 2148, 11/24/2010)
Franchise: Meet the Parents
Keywords: In-Laws / Future In-Laws, Mid-Life Crisis, Twins, Dysfunctional Family
Source:Original Screenplay
Genre:Comedy
Production Method:Live Action
Creative Type:Contemporary Fiction
Budget Source:L.A. Times

Budget Note

The production budget for Little Fockers was rumored to be about $135 million. However, the official studio number is $100 million (see, for example, L.A. Times, 12/23/2010). We use official studio figures in the database. Note that the difference may be accounted for by tax rebates and other adjustments made by the studio to reflect the actual pre-release negative cost.

Trailer


Little Fockers Trailer

Cast

Robert De Niro    Jack Byrnes
Ben Stiller    Greg Focker
Owen Wilson    Kevin Rawley
Blythe Danner    Dina Byrnes
Teri Polo    Pam Byrnes
Jessica Alba    Andi
Laura Dern    Prudence
Harvey Keitel    Randy Weir
Dustin Hoffman    Bernard "Bernie" Focker
Barbra Streisand    Rosalind "Roz" Focker

Production and Technical Credits

Director    Paul Weitz
Producer    Jane Rosenthal
Producer    Robert De Niro
Producer    Jay Roach
Producer    John Hamburg
Executive Producer    Nancy Tenenbaum
Executive Producer    Daniel Lupi
Executive Producer    Meghan Lyvers
Executive Producer    Andrew Miano
Executive Producer    Ryan Kavanaugh
Screenwriter    John Hamburg
Screenwriter    Larry Stuckey
Character Creator    Greg Glienna
Character Creator    Mary Ruth Clarke
Cinematographer    Remi Adefarasin
Production Designer    William Arnold
Editor    Greg Hayden
Editor    Leslie Jones
Editor    Myron Kerstein
Composer    Stephen Trask

Weekend Chart Record

DateRankGross% ChangeTheatersPer TheaterTotal GrossDays
2010/12/24 1 $30,833,665   3,536 $8,720   $45,083,800 5
2010/12/31 1 $25,766,485 -16% 3,554 $7,250   $102,576,190 12
2011/01/07 2 $13,487,245 -48% 3,675 $3,670   $123,687,760 19
2011/01/14 6 $7,194,865 -47% 3,394 $2,120   $134,280,890 26
2011/01/21 7 $4,320,090 -40% 2,979 $1,450   $141,111,705 33
2011/01/28 11 $2,573,930 -40% 2,051 $1,255   $144,727,470 40
2011/02/04 16 $1,239,980 -52% 1,355 $915   $146,542,285 47
2011/02/11 26 $345,510 -72% 424 $815   $147,233,490 54
2011/02/18 31 $266,470 -23% 285 $935   $147,635,660 61
2011/02/25 30 $234,770 -12% 261 $900   $147,980,230 68
2011/03/04 29 $177,905 -24% 221 $805   $148,219,535 75
2011/03/11 34 $113,345 -36% 177 $640   $148,383,780 82

Daily Chart Record

DateRankGross% ChangeTheatersPer TheaterTotal GrossDays
2010/12/22 1 $7,142,775   3,536 $2,020   $7,142,775 1
2010/12/23 1 $7,107,360 n/c 3,536 $2,010   $14,250,135 2
2010/12/24 1 $4,950,120 -30% 3,536 $1,400   $19,200,255 3
2010/12/25 1 $14,568,320 +194% 3,536 $4,120   $33,768,575 4
2010/12/26 1 $11,315,225 -22% 3,536 $3,200   $45,083,800 5
2010/12/27 1 $8,415,680 -26% 3,536 $2,380   $53,499,480 6
2010/12/28 1 $7,779,200 -8% 3,536 $2,200   $61,278,680 7
2010/12/29 1 $7,712,225 -1% 3,554 $2,170   $68,990,905 8
2010/12/30 1 $7,818,800 +1% 3,554 $2,200   $76,809,705 9
2010/12/31 2 $7,747,720 -1% 3,554 $2,180   $84,557,425 10
2011/01/01 1 $11,443,880 +48% 3,554 $3,220   $96,001,305 11
2011/01/02 1 $6,574,885 -43% 3,554 $1,850   $102,576,190 12
2011/01/03 2 $2,434,490 -63% 3,554 $685   $105,010,680 13
2011/01/04 2 $2,008,010 -18% 3,554 $565   $107,018,690 14
2011/01/05 2 $1,634,840 -19% 3,554 $460   $108,653,530 15
2011/01/06 2 $1,546,985 -5% 3,554 $435   $110,200,515 16
2011/01/07 2 $4,226,245 +173% 3,675 $1,150   $114,426,760 17
2011/01/08 2 $6,229,125 +47% 3,675 $1,695   $120,655,885 18
2011/01/09 2 $3,031,875 -51% 3,675 $825   $123,687,760 19
2011/01/10 3 $790,125 -74% 3,675 $215   $124,477,885 20
2011/01/11 3 $918,555 +16% 3,675 $250   $125,396,440 21
2011/01/12 3 $844,335 -8% 3,675 $230   $126,240,775 22
2011/01/13 3 $845,250 n/c 3,675 $230   $127,086,025 23
2011/01/14 6 $2,035,985 +141% 3,394 $600   $129,122,010 24
2011/01/15 6 $3,037,630 +49% 3,394 $895   $132,159,640 25
2011/01/16 6 $2,121,250 -30% 3,394 $625   $134,280,890 26
2011/01/17 9 $1,340,630 -37% 3,394 $395   $135,621,520 27
2011/01/18 7 $441,220 -67% 3,394 $130   $136,062,740 28
2011/01/19 7 $355,880 -19% 3,394 $105   $136,418,620 29
2011/01/20 7 $372,995 +5% 3,394 $110   $136,791,615 30
2011/01/21 7 $1,236,285 +231% 2,979 $415   $138,027,900 31
2011/01/22 7 $2,234,250 +81% 2,979 $750   $140,262,150 32
2011/01/23 10 $849,555 -62% 2,979 $285   $141,111,705 33
2011/01/24 9 $253,215 -70% 2,979 $85   $141,364,920 34
2011/01/25 8 $282,395 +12% 2,979 $95   $141,647,315 35
2011/01/26 8 $238,115 -16% 2,979 $80   $141,885,430 36
2011/01/27 9 $268,110 +13% 2,979 $90   $142,153,540 37
2011/01/28 10 $697,340 +160% 2,051 $340   $142,850,880 38
2011/01/29 11 $1,261,365 +81% 2,051 $615   $144,112,245 39
2011/01/30 14 $615,225 -51% 2,051 $300   $144,727,470 40
2011/01/31 14 $133,315 -78% 2,051 $65   $144,860,785 41
2011/02/01 13 $134,270 +1% 2,051 $65   $144,995,055 42
2011/02/02 14 $153,825 +15% 2,051 $75   $145,148,880 43
2011/02/03 14 $153,425 n/c 2,051 $75   $145,302,305 44
2011/02/04 15 $379,555 +147% 1,355 $280   $145,681,860 45
2011/02/05 16 $670,725 +77% 1,355 $495   $146,352,585 46
2011/02/06 17 $189,700 -72% 1,355 $140   $146,542,285 47
2011/02/07 16 $88,075 -54% 1,355 $65   $146,630,360 48
2011/02/08 17 $87,985 n/c 1,355 $65   $146,718,345 49
2011/02/09 18 $81,300 -8% 1,355 $60   $146,799,645 50
2011/02/10 17 $88,335 +9% 1,355 $65   $146,887,980 51
2011/02/11 - $88,985 +1% 424 $210   $146,976,965 52
2011/02/12 - $165,365 +86% 424 $390   $147,142,330 53
2011/02/13 - $91,160 -45% 424 $215   $147,233,490 54
2011/02/14 - $65,720 -28% 424 $155   $147,299,210 55
2011/02/15 - $27,560 -58% 424 $65   $147,326,770 56
2011/02/16 - $21,195 -23% 424 $50   $147,347,965 57
2011/02/17 - $21,225 n/c 424 $50   $147,369,190 58
2011/02/18 - $69,825 +229% 285 $245   $147,439,015 59
2011/02/19 - $112,570 +61% 285 $395   $147,551,585 60
2011/02/20 - $84,075 -25% 285 $295   $147,635,660 61
2011/02/21 34 $47,025 -44% 285 $165   $147,682,685 62
2011/02/22 - $22,800 -52% 285 $80   $147,705,485 63
2011/02/23 - $19,950 -13% 285 $70   $147,725,435 64
2011/02/24 - $20,025 n/c 285 $70   $147,745,460 65
2011/02/25 - $62,550 +212% 261 $240   $147,808,010 66
2011/02/26 - $110,805 +77% 261 $425   $147,918,815 67
2011/02/27 - $61,415 -45% 261 $235   $147,980,230 68
2011/02/28 - $11,745 -81% 261 $45   $147,991,975 69
2011/03/01 - $17,025 +45% 261 $65   $148,009,000 70
2011/03/02 - $15,665 -8% 261 $60   $148,024,665 71
2011/03/03 - $16,965 +8% 261 $65   $148,041,630 72
2011/03/04 - $46,410 +174% 221 $210   $148,088,040 73
2011/03/05 - $82,875 +79% 221 $375   $148,170,915 74
2011/03/06 - $48,620 -41% 221 $220   $148,219,535 75
2011/03/07 - $12,155 -75% 221 $55   $148,231,690 76
2011/03/08 - $13,335 +10% 221 $60   $148,245,025 77
2011/03/09 - $12,045 -10% 221 $55   $148,257,070 78
2011/03/10 - $13,365 +11% 221 $60   $148,270,435 79
2011/03/11 - $29,270 +119% 177 $165   $148,299,705 80
2011/03/12 - $53,185 +82% 177 $300   $148,352,890 81
2011/03/13 - $30,890 -42% 177 $175   $148,383,780 82
2011/03/14 - $11,505 -63% 177 $65   $148,395,285 83
2011/03/15 - $15,045 +31% 177 $85   $148,410,330 84
2011/03/16 - $14,160 -6% 177 $80   $148,424,490 85
2011/03/17 - $14,110 n/c 177 $80   $148,438,600 86

Worldwide Weekly Chart Record

DateRank Gross% ChangeTheatersPer TheaterTotal Gross
2010-12-30 1 $112,063,082   7,609 $14,728 $126,313,217
2011-01-06 1 $74,795,543 -33.26% 7,752 $9,649 $201,108,760
2011-01-13 1 $45,291,861 -39.45% 8,870 $5,106 $246,400,621
2011-01-20 3 $29,371,324 -35.15% 8,403 $3,495 $275,771,945
2011-01-27 8 $15,212,490 -48.21% 7,129 $2,134 $290,984,435
2011-02-03 14 $8,049,775 -47.08% 4,702 $1,712 $299,034,210
2011-02-10 20 $6,180,407 -23.22%     $305,271,033
2011-02-17 28 $1,925,861 -68.84%     $307,196,894
2011-02-24 40 $865,387 -55.06%     $308,062,281
2011-03-03 41 $486,362 -43.80%     $308,548,643
2011-03-10 44 $314,279 -35.38%     $308,862,922
2011-03-17 45 $210,131 -33.14%     $309,073,053
2011-03-24 72 $2,749 -98.69%     $309,075,802
2011-03-31 56 $57,663 +1,997.60%     $309,133,465
2011-04-07 39 $365,712 +534.22%     $309,499,177
2011-04-14 47 $61,136 -83.28%     $309,560,313
2011-04-21 60 $9,058 -85.18%     $309,569,371
2011-04-28 74 $2,502 -72.38%     $309,571,873
2011-05-05 62 $4,067 +62.55%     $309,575,940
2011-05-12 30 $1,023,310 +25,061.30%     $310,599,250
2011-05-19 61 $46,480 -95.46%     $310,645,730
2011-05-26 62 $4,855 -89.55%     $310,650,585
2011-06-23 67 $77 -98.41%     $310,650,662